Terminal Aerodrome Forecast
Issued by NWS Sterling, VA

Home | Current Version | Previous Version | Text Only | Print | Product List | Glossary On
Versions: 1 2 3 4 5 6 7 8 9 10 11 12 13 14 15 16 17
000
FTUS41 KLWX 061745
TAFCHO
TAF
KCHO 061745Z 0618/0718 06008KT P6SM SCT050
     FM061900 08006KT P6SM VCTS SCT050CB
     FM070100 04009KT P6SM BKN050
     FM070500 VRB03KT P6SM BKN090
     FM070700 00000KT 3SM BR BKN090
     FM071000 00000KT 4SM BR BKN250
     FM071300 VRB03KT P6SM SCT025=

USA.gov is the U.S. government's official web portal to all federal, state and local government web resources and services.